createdAt,value
2022-09-15T00:01:12.155Z,72.73
2022-09-15T00:03:40.331Z,72.85
2022-09-15T00:06:09.620Z,73.00
2022-09-15T00:08:37.408Z,73.12
2022-09-15T00:11:09.860Z,73.21
2022-09-15T00:13:39.120Z,72.98
2022-09-15T00:16:07.505Z,73.28
2022-09-15T00:18:36.699Z,73.66
2022-09-15T00:21:09.223Z,73.18
2022-09-15T00:23:37.992Z,73.26
2022-09-15T00:26:11.359Z,74.05
2022-09-15T00:28:39.643Z,73.86
2022-09-15T00:31:09.846Z,74.04
2022-09-15T00:33:37.466Z,74.30
2022-09-15T00:36:08.551Z,74.41
2022-09-15T00:38:37.355Z,74.31
2022-09-15T00:41:06.959Z,74.45
2022-09-15T00:43:50.824Z,75.02
2022-09-15T00:46:24.859Z,75.18
2022-09-15T00:49:07.548Z,74.62
2022-09-15T00:51:53.335Z,74.76
2022-09-15T00:54:26.961Z,74.82
2022-09-15T00:56:57.560Z,74.93
2022-09-15T00:59:28.790Z,74.95
2022-09-15T01:02:03.538Z,75.19
2022-09-15T01:04:31.119Z,75.36
2022-09-15T01:07:04.071Z,75.94
2022-09-15T01:09:42.074Z,75.71
2022-09-15T01:12:09.572Z,75.67
2022-09-15T01:14:37.144Z,75.78
2022-09-15T01:17:38.906Z,75.55
2022-09-15T01:20:09.215Z,75.91
2022-09-15T01:23:01.067Z,76.15
2022-09-15T01:25:28.530Z,76.40
2022-09-15T01:28:33.208Z,76.18
2022-09-15T01:31:58.521Z,76.29
2022-09-15T01:34:30.507Z,76.12
2022-09-15T01:37:03.615Z,76.32
2022-09-15T01:39:37.908Z,76.22
2022-09-15T01:42:12.940Z,76.36
2022-09-15T01:44:49.776Z,76.40
2022-09-15T01:47:20.811Z,76.25
2022-09-15T01:50:07.526Z,76.57
2022-09-15T01:52:35.356Z,76.65
2022-09-15T01:55:12.464Z,76.23
2022-09-15T01:57:39.984Z,76.70
2022-09-15T02:00:08.077Z,76.58
2022-09-15T02:02:44.290Z,76.39
2022-09-15T02:05:45.525Z,76.83
2022-09-15T02:08:30.423Z,76.35
2022-09-15T02:11:21.767Z,76.84
2022-09-15T02:14:09.945Z,76.92
2022-09-15T02:16:39.866Z,76.59
2022-09-15T02:19:19.966Z,76.57
2022-09-15T02:22:03.096Z,76.75
2022-09-15T02:24:37.862Z,76.61
2022-09-15T02:27:15.866Z,76.95
2022-09-15T02:29:47.213Z,77.36
2022-09-15T02:32:17.903Z,76.96
2022-09-15T02:34:51.718Z,77.45
2022-09-15T02:37:22.267Z,77.01
2022-09-15T02:39:55.790Z,77.51
2022-09-15T02:42:25.295Z,77.46
2022-09-15T02:44:52.997Z,77.80
2022-09-15T02:47:20.920Z,77.83
2022-09-15T02:49:48.511Z,77.94
2022-09-15T02:52:16.128Z,77.63
2022-09-15T02:54:43.857Z,77.70
2022-09-15T02:57:11.402Z,78.06
2022-09-15T02:59:57.443Z,78.10
2022-09-15T03:02:25.561Z,77.80
2022-09-15T03:04:53.137Z,78.19
2022-09-15T03:07:20.752Z,77.79
2022-09-15T03:09:48.280Z,78.35
2022-09-15T03:12:16.246Z,78.20
2022-09-15T03:14:44.673Z,77.88
2022-09-15T03:17:12.108Z,78.22
2022-09-15T03:19:39.624Z,78.00
2022-09-15T03:22:07.412Z,77.97
2022-09-15T03:24:35.085Z,78.21
2022-09-15T03:27:02.766Z,78.05
2022-09-15T03:29:30.254Z,78.48
2022-09-15T03:31:58.192Z,78.27
2022-09-15T03:34:25.691Z,78.77
2022-09-15T03:36:53.157Z,79.35
2022-09-15T03:39:20.840Z,80.04
2022-09-15T03:41:48.553Z,79.19
2022-09-15T03:44:16.164Z,77.90
2022-09-15T03:46:43.626Z,76.32
2022-09-15T03:49:11.073Z,75.50
2022-09-15T03:51:38.609Z,74.58
2022-09-15T03:54:06.100Z,73.03
2022-09-15T03:56:33.775Z,71.62
2022-09-15T03:59:02.948Z,69.87
2022-09-15T04:01:31.050Z,69.43
2022-09-15T04:03:59.269Z,68.60
2022-09-15T04:06:27.265Z,68.06
2022-09-15T04:08:55.357Z,66.27
2022-09-15T04:11:23.471Z,64.95
2022-09-15T04:13:50.915Z,64.76
2022-09-15T04:16:20.549Z,65.33
2022-09-15T04:18:48.069Z,65.29
2022-09-15T04:21:18.424Z,66.41
2022-09-15T04:23:46.935Z,67.11
2022-09-15T04:26:23.326Z,67.85
2022-09-15T04:28:50.920Z,68.04
2022-09-15T04:31:20.390Z,68.69
2022-09-15T04:33:48.948Z,68.71
2022-09-15T04:36:19.456Z,68.49
2022-09-15T04:38:47.561Z,68.61
2022-09-15T04:41:15.758Z,68.71
2022-09-15T04:43:44.052Z,68.78
2022-09-15T04:46:13.068Z,68.71
2022-09-15T04:48:42.148Z,68.61
2022-09-15T04:51:16.271Z,68.54
2022-09-15T04:53:44.641Z,68.71
2022-09-15T04:56:15.108Z,68.76
2022-09-15T04:58:45.592Z,68.34
2022-09-15T05:01:25.012Z,68.38
2022-09-15T05:03:53.956Z,68.32
2022-09-15T05:06:24.161Z,68.33
2022-09-15T05:08:55.220Z,68.51
2022-09-15T05:11:23.308Z,68.69
2022-09-15T05:13:51.454Z,68.87
2022-09-15T05:16:21.949Z,68.88
2022-09-15T05:18:51.127Z,68.96
2022-09-15T05:21:20.582Z,69.10
2022-09-15T05:23:49.368Z,69.09
2022-09-15T05:26:21.533Z,69.49
2022-09-15T05:28:49.204Z,69.59
2022-09-15T05:31:23.091Z,69.76
2022-09-15T05:33:51.801Z,69.62
2022-09-15T05:36:21.504Z,70.07
2022-09-15T05:38:48.961Z,70.28
2022-09-15T05:41:19.824Z,70.60
2022-09-15T05:43:49.953Z,70.58
2022-09-15T05:46:19.463Z,70.61
2022-09-15T05:48:47.501Z,70.58
2022-09-15T05:51:15.749Z,70.57
2022-09-15T05:53:43.262Z,70.51
2022-09-15T05:56:13.346Z,70.34
2022-09-15T05:58:42.633Z,70.51
2022-09-15T06:01:14.952Z,70.43
2022-09-15T06:03:43.218Z,70.47
2022-09-15T06:06:12.432Z,70.79
2022-09-15T06:08:57.411Z,70.98
2022-09-15T06:11:28.466Z,70.94
2022-09-15T06:14:00.327Z,71.15
2022-09-15T06:16:28.136Z,71.38
2022-09-15T06:18:55.739Z,71.76
2022-09-15T06:21:27.331Z,71.81
2022-09-15T06:24:03.837Z,71.88
2022-09-15T06:26:31.426Z,72.08
2022-09-15T06:29:03.719Z,71.60
2022-09-15T06:31:36.130Z,71.32
2022-09-15T06:34:10.367Z,71.25
2022-09-15T06:36:39.333Z,71.34
2022-09-15T06:39:06.969Z,71.77
2022-09-15T06:42:00.686Z,71.47
2022-09-15T06:44:26.402Z,71.45
2022-09-15T06:46:53.955Z,71.51
2022-09-15T06:49:22.065Z,71.72
2022-09-15T06:51:49.543Z,71.94
2022-09-15T06:54:17.091Z,71.72
2022-09-15T06:56:45.240Z,71.25
2022-09-15T06:59:14.081Z,70.87
2022-09-15T07:01:42.166Z,69.88
2022-09-15T07:04:11.514Z,68.82
2022-09-15T07:06:40.069Z,68.36
2022-09-15T07:09:07.736Z,68.29
2022-09-15T07:11:35.382Z,67.97
2022-09-15T07:14:04.176Z,67.91
2022-09-15T07:16:32.078Z,68.10
2022-09-15T07:19:02.646Z,68.38
2022-09-15T07:21:30.176Z,68.89
2022-09-15T07:23:58.336Z,68.78
2022-09-15T07:26:28.003Z,69.33
2022-09-15T07:28:58.292Z,68.73
2022-09-15T07:31:28.186Z,66.99
2022-09-15T07:33:55.956Z,66.02
2022-09-15T07:36:23.497Z,65.80
2022-09-15T07:38:51.588Z,66.18
2022-09-15T07:41:23.473Z,65.90
2022-09-15T07:43:57.337Z,66.17
2022-09-15T07:46:26.407Z,66.41
2022-09-15T07:48:57.721Z,66.34
2022-09-15T07:51:28.298Z,66.89
2022-09-15T07:53:56.192Z,66.98
2022-09-15T07:56:24.237Z,67.13
2022-09-15T07:58:54.825Z,65.76
2022-09-15T08:01:24.269Z,64.15
2022-09-15T08:03:53.034Z,63.66
2022-09-15T08:06:23.168Z,62.94
2022-09-15T08:08:56.336Z,62.83
2022-09-15T08:11:28.817Z,60.12
2022-09-15T08:13:56.569Z,58.62
2022-09-15T08:16:25.318Z,58.24
2022-09-15T08:18:54.511Z,58.36
2022-09-15T08:21:22.624Z,59.21
2022-09-15T08:23:58.824Z,59.13
2022-09-15T08:26:27.330Z,59.63
2022-09-15T08:29:01.149Z,59.18
2022-09-15T08:31:29.119Z,58.94
2022-09-15T08:33:57.115Z,58.97
2022-09-15T08:36:28.205Z,58.39
2022-09-15T08:38:56.610Z,57.71
2022-09-15T08:41:36.687Z,56.18
2022-09-15T08:44:32.373Z,55.48
2022-09-15T08:47:28.778Z,54.11
2022-09-15T08:50:27.589Z,53.63
2022-09-15T08:53:28.813Z,54.99
2022-09-15T08:56:00.333Z,54.56
2022-09-15T08:58:35.063Z,54.63
2022-09-15T09:01:11.559Z,53.36
2022-09-15T09:03:41.691Z,53.75
2022-09-15T09:06:44.815Z,52.84
2022-09-15T09:09:17.985Z,52.94
2022-09-15T09:12:04.083Z,52.05
2022-09-15T09:15:01.219Z,52.72
2022-09-15T09:17:36.192Z,53.23
2022-09-15T09:20:29.822Z,52.65
2022-09-15T09:23:00.639Z,52.21
2022-09-15T09:25:28.576Z,52.46
2022-09-15T09:27:58.724Z,52.13
2022-09-15T09:30:29.881Z,52.28
2022-09-15T09:33:05.199Z,52.34
2022-09-15T09:35:38.857Z,52.30
2022-09-15T09:38:10.494Z,53.03
2022-09-15T09:40:43.375Z,53.26
2022-09-15T09:43:11.644Z,53.02
2022-09-15T09:45:39.266Z,53.58
2022-09-15T09:48:19.214Z,53.99
2022-09-15T09:50:47.650Z,53.57
2022-09-15T09:53:28.076Z,53.47
2022-09-15T09:56:13.365Z,53.31
2022-09-15T09:58:40.912Z,53.12
2022-09-15T10:01:14.910Z,52.01
2022-09-15T10:03:44.059Z,51.29
2022-09-15T10:06:19.103Z,51.27
2022-09-15T10:08:54.664Z,51.50
2022-09-15T10:11:22.996Z,51.74
2022-09-15T10:13:55.593Z,51.86
2022-09-15T10:16:23.390Z,52.17
2022-09-15T10:18:54.376Z,51.96
2022-09-15T10:21:26.434Z,51.96
2022-09-15T10:23:54.064Z,52.30
2022-09-15T10:26:34.802Z,52.70
2022-09-15T10:29:19.527Z,52.31
2022-09-15T10:31:47.149Z,52.41
2022-09-15T10:34:32.944Z,52.65
2022-09-15T10:37:29.475Z,52.46
2022-09-15T10:40:00.445Z,52.53
2022-09-15T10:42:59.216Z,51.55
2022-09-15T10:45:40.744Z,51.34
2022-09-15T10:48:43.662Z,51.50
2022-09-15T10:51:29.380Z,51.44
2022-09-15T10:54:02.961Z,51.37
2022-09-15T10:56:43.048Z,51.17
2022-09-15T10:59:34.560Z,50.79
2022-09-15T11:02:08.503Z,51.40
2022-09-15T11:04:45.215Z,50.69
2022-09-15T11:07:32.588Z,50.76
2022-09-15T11:10:40.060Z,51.07
2022-09-15T11:13:50.592Z,51.03
2022-09-15T11:16:44.204Z,50.69
2022-09-15T11:19:45.767Z,50.75
2022-09-15T11:22:49.477Z,50.39
2022-09-15T11:25:28.281Z,50.85
2022-09-15T11:28:10.321Z,50.91
2022-09-15T11:30:47.671Z,51.07
2022-09-15T11:33:25.906Z,51.18
2022-09-15T11:36:11.971Z,51.30
2022-09-15T11:39:04.175Z,51.30
2022-09-15T11:41:35.831Z,51.74
2022-09-15T11:44:19.900Z,51.87
2022-09-15T11:47:05.534Z,52.11
2022-09-15T11:49:46.931Z,52.22
2022-09-15T11:52:22.730Z,52.41
2022-09-15T11:55:18.669Z,51.83
2022-09-15T11:57:56.265Z,51.74
2022-09-15T12:00:23.782Z,51.67
2022-09-15T12:02:57.721Z,52.17
2022-09-15T12:05:43.876Z,52.57
2022-09-15T12:08:22.104Z,52.85
2022-09-15T12:10:53.804Z,53.38
2022-09-15T12:13:24.295Z,53.39
2022-09-15T12:15:54.840Z,53.28
2022-09-15T12:18:40.780Z,53.11
2022-09-15T12:21:20.156Z,52.75
2022-09-15T12:23:53.207Z,52.91
2022-09-15T12:26:26.437Z,53.18
2022-09-15T12:28:58.789Z,53.39
2022-09-15T12:31:35.928Z,52.87
2022-09-15T12:34:03.964Z,52.69
2022-09-15T12:36:31.633Z,52.91
2022-09-15T12:39:00.966Z,52.95
2022-09-15T12:41:29.490Z,53.21
2022-09-15T12:44:02.627Z,53.60
2022-09-15T12:46:30.285Z,53.82
2022-09-15T12:49:03.451Z,53.76
2022-09-15T12:51:31.390Z,54.08
2022-09-15T12:54:04.955Z,54.22
2022-09-15T12:56:34.457Z,54.43
2022-09-15T12:59:07.528Z,54.51
2022-09-15T13:01:56.369Z,54.79
2022-09-15T13:04:29.581Z,54.59
2022-09-15T13:07:15.262Z,54.63
2022-09-15T13:09:58.887Z,54.75
2022-09-15T13:17:14.507Z,55.65
2022-09-15T13:19:49.216Z,56.05
2022-09-15T13:22:31.950Z,56.49
2022-09-15T13:25:18.422Z,56.99
2022-09-15T13:27:50.578Z,56.97
2022-09-15T13:30:21.636Z,56.94
2022-09-15T13:33:08.416Z,57.07
2022-09-15T13:36:00.035Z,57.17
2022-09-15T13:38:46.443Z,57.13
2022-09-15T13:41:40.357Z,56.84
2022-09-15T13:44:19.301Z,56.99
2022-09-15T13:47:09.078Z,56.99
2022-09-15T13:50:15.291Z,56.63
2022-09-15T13:52:53.578Z,57.26
2022-09-15T13:55:28.118Z,57.83
2022-09-15T14:00:54.183Z,58.40
2022-09-15T14:03:28.943Z,58.70
2022-09-15T14:05:57.165Z,58.98
2022-09-15T14:08:33.673Z,58.96
2022-09-15T14:11:08.913Z,58.66
2022-09-15T14:13:41.234Z,58.76
2022-09-15T14:16:20.259Z,58.64
2022-09-15T14:18:47.738Z,58.54
2022-09-15T14:21:34.956Z,58.52
2022-09-15T14:24:07.258Z,58.26
2022-09-15T14:26:36.122Z,58.30
2022-09-15T14:29:06.626Z,58.37
2022-09-15T14:31:41.313Z,58.19
2022-09-15T14:34:21.995Z,58.28
2022-09-15T14:37:21.117Z,58.31
2022-09-15T14:39:56.512Z,58.20
2022-09-15T14:42:31.285Z,58.50
2022-09-15T14:48:01.629Z,58.78
2022-09-15T14:50:33.247Z,58.64
2022-09-15T14:53:28.479Z,58.84
2022-09-15T14:56:07.030Z,58.76
2022-09-15T14:58:43.706Z,58.97
2022-09-15T15:01:22.890Z,58.78
2022-09-15T15:04:00.540Z,58.93
2022-09-15T15:06:38.286Z,58.96
2022-09-15T15:09:30.447Z,59.03
2022-09-15T15:12:20.925Z,59.27
2022-09-15T15:14:48.441Z,59.35
2022-09-15T15:17:54.876Z,59.40
2022-09-15T15:20:25.901Z,59.24
2022-09-15T15:23:13.350Z,59.63
2022-09-15T15:25:42.022Z,59.65
2022-09-15T15:28:36.210Z,60.11
2022-09-15T15:31:23.911Z,60.40
2022-09-15T15:34:00.485Z,60.61
2022-09-15T15:36:30.205Z,60.70
2022-09-15T15:39:04.359Z,61.25
2022-09-15T15:41:35.815Z,61.25
2022-09-15T15:44:08.364Z,61.14
2022-09-15T15:46:58.079Z,61.76
2022-09-15T15:49:27.970Z,61.68
2022-09-15T15:51:57.687Z,61.79
2022-09-15T15:54:27.037Z,61.81
2022-09-15T15:56:55.572Z,61.89
2022-09-15T15:59:23.055Z,62.30
2022-09-15T16:01:55.405Z,62.23
2022-09-15T16:04:23.090Z,62.21
2022-09-15T16:06:51.202Z,62.25
2022-09-15T16:09:20.976Z,62.35
2022-09-15T16:11:48.923Z,62.45
2022-09-15T16:14:16.480Z,62.24
2022-09-15T16:16:44.861Z,62.85
2022-09-15T16:19:12.892Z,62.95
2022-09-15T16:21:42.679Z,62.98
2022-09-15T16:24:15.391Z,63.03
2022-09-15T16:26:44.243Z,63.18
2022-09-15T16:29:12.216Z,62.92
2022-09-15T16:31:40.228Z,63.27
2022-09-15T16:34:13.849Z,63.36
2022-09-15T16:36:41.254Z,63.34
2022-09-15T16:39:08.808Z,63.36
2022-09-15T16:41:39.381Z,63.72
2022-09-15T16:44:16.254Z,63.87
2022-09-15T16:46:43.838Z,63.84
2022-09-15T16:49:11.301Z,63.97
2022-09-15T16:51:38.743Z,64.38
2022-09-15T16:54:15.670Z,64.38
2022-09-15T16:56:43.548Z,64.66
2022-09-15T16:59:11.126Z,64.90
2022-09-15T17:01:39.260Z,64.94
2022-09-15T17:04:14.999Z,65.33
2022-09-15T17:06:43.536Z,65.48
2022-09-15T17:09:10.998Z,65.67
2022-09-15T17:11:38.568Z,65.57
2022-09-15T17:14:06.293Z,66.11
2022-09-15T17:16:33.686Z,66.28
2022-09-15T17:19:01.188Z,66.76
2022-09-15T17:21:28.849Z,66.97
2022-09-15T17:23:56.300Z,67.12
2022-09-15T17:26:31.236Z,67.41
2022-09-15T17:28:59.151Z,67.68
2022-09-15T17:31:28.143Z,67.73
2022-09-15T17:33:55.830Z,68.01
2022-09-15T17:36:23.358Z,68.12
2022-09-15T17:38:50.861Z,68.02
2022-09-15T17:41:20.561Z,68.25
2022-09-15T17:43:48.369Z,68.13
2022-09-15T17:46:15.850Z,68.21
2022-09-15T17:48:43.403Z,68.44
2022-09-15T17:51:17.477Z,68.34
2022-09-15T17:53:48.061Z,68.47
2022-09-15T17:56:15.633Z,68.65
2022-09-15T17:58:43.383Z,68.92
2022-09-15T18:01:15.749Z,69.11
2022-09-15T18:03:45.072Z,69.10
2022-09-15T18:06:13.019Z,69.59
2022-09-15T18:08:41.244Z,69.61
2022-09-15T18:11:11.160Z,69.77
2022-09-15T18:13:38.614Z,70.03
2022-09-15T18:16:11.140Z,70.17
2022-09-15T18:18:40.479Z,70.67
2022-09-15T18:21:10.301Z,70.61
2022-09-15T18:23:38.367Z,70.84
2022-09-15T18:26:06.100Z,71.39
2022-09-15T18:28:33.675Z,71.36
2022-09-15T18:31:01.407Z,71.36
2022-09-15T18:33:29.033Z,71.58
2022-09-15T18:35:59.224Z,71.79
2022-09-15T18:38:26.728Z,71.99
2022-09-15T18:40:56.501Z,72.27
2022-09-15T18:43:26.692Z,72.29
2022-09-15T18:46:03.284Z,72.60
2022-09-15T18:48:31.240Z,72.36
2022-09-15T18:50:59.000Z,72.85
2022-09-15T18:53:26.437Z,73.13
2022-09-15T18:55:53.921Z,73.13
2022-09-15T18:58:22.731Z,73.09
2022-09-15T19:00:50.434Z,73.48
2022-09-15T19:03:17.902Z,73.77
2022-09-15T19:05:46.263Z,74.02
2022-09-15T19:08:13.897Z,74.07
2022-09-15T19:10:44.387Z,74.08
2022-09-15T19:13:14.323Z,74.05
2022-09-15T19:15:44.223Z,74.26
2022-09-15T19:18:12.341Z,74.23
2022-09-15T19:20:40.614Z,74.32
2022-09-15T19:23:09.356Z,74.24
2022-09-15T19:25:37.109Z,74.45
2022-09-15T19:28:04.657Z,74.44
2022-09-15T19:30:32.351Z,74.26
2022-09-15T19:33:00.056Z,74.39
2022-09-15T19:35:27.602Z,74.35
2022-09-15T19:37:55.482Z,74.49
2022-09-15T19:40:24.049Z,74.45
2022-09-15T19:42:52.582Z,74.54
2022-09-15T19:45:21.442Z,74.35
2022-09-15T19:47:49.008Z,74.64
2022-09-15T19:50:16.929Z,74.66
2022-09-15T19:52:44.541Z,74.46
2022-09-15T19:55:13.322Z,74.65
2022-09-15T19:57:42.538Z,74.61
2022-09-15T20:00:12.863Z,74.56
2022-09-15T20:02:40.654Z,74.62
2022-09-15T20:05:09.360Z,74.66
2022-09-15T20:07:37.173Z,74.61
2022-09-15T20:10:05.662Z,74.70
2022-09-15T20:12:33.604Z,74.52
2022-09-15T20:15:01.248Z,74.65
2022-09-15T20:17:29.310Z,74.46
2022-09-15T20:19:56.881Z,74.28
2022-09-15T20:22:24.925Z,74.50
2022-09-15T20:24:52.481Z,74.61
2022-09-15T20:27:20.035Z,74.44
2022-09-15T20:29:47.612Z,74.53
2022-09-15T20:32:15.414Z,74.93
2022-09-15T20:34:43.058Z,74.79
2022-09-15T20:37:10.539Z,74.86
2022-09-15T20:39:38.318Z,74.94
2022-09-15T20:42:05.966Z,74.80
2022-09-15T20:44:33.585Z,75.06
2022-09-15T20:47:01.117Z,74.69
2022-09-15T20:49:29.862Z,74.91
2022-09-15T20:51:57.618Z,75.01
2022-09-15T20:54:25.176Z,74.72
2022-09-15T20:56:52.628Z,74.98
2022-09-15T20:59:20.149Z,74.93
2022-09-15T21:01:47.821Z,74.96
2022-09-15T21:04:15.258Z,74.88
2022-09-15T21:06:42.712Z,74.99
2022-09-15T21:09:10.228Z,75.11
2022-09-15T21:11:37.775Z,74.93
2022-09-15T21:14:05.319Z,74.92
2022-09-15T21:16:35.166Z,74.71
2022-09-15T21:19:03.000Z,74.80
2022-09-15T21:21:32.533Z,74.73
2022-09-15T21:24:04.291Z,74.54
2022-09-15T21:26:34.418Z,74.28
2022-09-15T21:29:01.984Z,74.40
2022-09-15T21:31:32.311Z,74.22
2022-09-15T21:34:00.647Z,74.16
2022-09-15T21:36:30.576Z,74.10
2022-09-15T21:38:59.685Z,74.18
2022-09-15T21:41:30.232Z,74.26
2022-09-15T21:43:59.362Z,74.22
2022-09-15T21:46:31.564Z,74.48
2022-09-15T21:49:00.584Z,74.76
2022-09-15T21:51:29.975Z,74.71
2022-09-15T21:53:59.399Z,74.91
2022-09-15T21:56:28.587Z,75.27
2022-09-15T21:58:56.202Z,75.31
2022-09-15T22:01:25.530Z,75.58
2022-09-15T22:03:56.007Z,75.67
2022-09-15T22:06:27.882Z,75.98
2022-09-15T22:08:55.702Z,76.13
2022-09-15T22:11:23.956Z,76.17
2022-09-15T22:13:51.553Z,76.36
2022-09-15T22:16:21.467Z,76.56
2022-09-15T22:18:49.536Z,76.44
2022-09-15T22:21:19.655Z,76.70
2022-09-15T22:23:48.625Z,76.95
2022-09-15T22:26:30.307Z,77.35
2022-09-15T22:29:00.204Z,77.19
2022-09-15T22:31:29.857Z,77.24
2022-09-15T22:33:57.888Z,77.39
2022-09-15T22:36:29.675Z,77.45
2022-09-15T22:39:05.879Z,77.54
2022-09-15T22:41:38.619Z,77.87
2022-09-15T22:44:07.848Z,77.96
2022-09-15T22:46:35.462Z,78.02
2022-09-15T22:49:03.366Z,78.10
2022-09-15T22:51:30.780Z,78.27
2022-09-15T22:54:01.050Z,78.59
2022-09-15T22:56:28.839Z,78.61
2022-09-15T22:58:56.985Z,78.58
2022-09-15T23:01:28.216Z,78.87
2022-09-15T23:03:58.549Z,79.04
2022-09-15T23:06:28.693Z,79.18
2022-09-15T23:08:59.220Z,79.47
2022-09-15T23:11:28.749Z,79.66
2022-09-15T23:13:56.816Z,79.87
2022-09-15T23:16:25.272Z,80.29
2022-09-15T23:18:53.981Z,80.18
2022-09-15T23:21:22.266Z,80.57
2022-09-15T23:23:50.324Z,80.42
2022-09-15T23:26:20.076Z,80.70
2022-09-15T23:28:49.405Z,80.81
2022-09-15T23:31:17.749Z,80.82
2022-09-15T23:33:46.205Z,80.87
2022-09-15T23:36:16.762Z,81.02
2022-09-15T23:38:45.606Z,81.30
2022-09-15T23:41:14.172Z,81.40
2022-09-15T23:43:41.790Z,81.39
2022-09-15T23:46:10.170Z,81.40
2022-09-15T23:48:37.828Z,81.59
2022-09-15T23:51:06.042Z,81.61
2022-09-15T23:53:34.517Z,81.99
2022-09-15T23:56:02.483Z,81.93
2022-09-15T23:58:30.004Z,82.03
